Terminal Aerodrome Forecast
Issued by NWS Mt. Holly, NJ

Home | Current Version | Previous Version | Text Only | Print | Product List | Glossary On
Versions: 1 2 3 4 5 6 7 8 9 10 11 12 13 14 15 16 17 18 19 20
000
FTUS41 KPHI 300900 AAA
TAFABE
TAF AMD
KABE 300951Z 3010/3106 00000KT 6SM -SN FEW015 OVC029
     FM301100 29006KT 6SM -SN BR OVC035
      TEMPO 3011/3014 5SM -SN BKN025
     FM301600 31015G27KT P6SM BKN035
     FM302100 32021G38KT P6SM BKN035=

USA.gov is the U.S. government's official web portal to all federal, state and local government web resources and services.